Time;durP1;ratioP1;P1;durP2;ratioP2;P2;SDS_P1;SDS_P2;PMS_P1;PMS_P2;Temp;Humidity;BMP_temperature;BMP_pressure;BME280_temperature;BME280_humidity;BME280_pressure;Samples;Min_cycle;Max_cycle;Signal;HPM_P1;HPM_P2
2023/03/08 00:02:56;;;;;;;2.75;2.47;;;;;;;0.18;100.00;98248.72;10590384;28;20032;-73
2023/03/08 00:07:58;;;;;;;2.58;2.05;;;;;;;0.10;100.00;98254.03;10573906;28;20092;-73
2023/03/08 00:13:00;;;;;;;3.63;2.10;;;;;;;-0.08;100.00;98273.28;10589772;28;20466;-73
2023/03/08 00:18:02;;;;;;;2.45;2.25;;;;;;;-0.01;100.00;98279.19;10570944;28;20047;-73
2023/03/08 00:23:03;;;;;;;2.50;2.30;;;;;;;-0.07;100.00;98287.06;10589951;28;20051;-73
2023/03/08 00:28:05;;;;;;;3.47;3.20;;;;;;;-0.17;100.00;98272.59;10591941;28;20423;-73
2023/03/08 00:33:07;;;;;;;3.40;3.10;;;;;;;-0.14;100.00;98288.03;10589303;28;20043;-73
2023/03/08 00:38:08;;;;;;;3.60;3.30;;;;;;;-0.06;100.00;98297.34;10589857;28;20044;-74
2023/03/08 00:43:11;;;;;;;3.80;3.50;;;;;;;-0.13;100.00;98298.34;10588663;28;20408;-74
2023/03/08 00:48:13;;;;;;;2.95;2.65;;;;;;;-0.22;100.00;98298.50;10589430;28;20547;-74
2023/03/08 00:53:15;;;;;;;3.03;2.40;;;;;;;-0.23;100.00;98311.41;10569893;28;20052;-74
2023/03/08 00:58:17;;;;;;;2.78;1.88;;;;;;;-0.24;100.00;98320.91;10586576;28;20118;-73
2023/03/08 01:03:20;;;;;;;2.85;1.60;;;;;;;-0.21;100.00;98305.38;10569540;28;20050;-73
2023/03/08 01:08:24;;;;;;;2.30;2.10;;;;;;;-0.31;100.00;98296.03;10568634;28;20126;-74
2023/03/08 01:13:31;;;;;;;2.65;2.00;;;;;;;-0.30;100.00;98313.25;10588636;28;20066;-73
2023/03/08 01:18:33;;;;;;;;;;;;;;;-0.30;100.00;98308.09;10569780;28;20040;-74
2023/03/08 01:23:35;;;;;;;5.15;2.10;;;;;;;0.21;100.00;98308.94;10568980;28;19923;-74
2023/03/08 01:28:37;;;;;;;4.22;1.50;;;;;;;0.22;100.00;98307.19;10568657;28;20123;-73
2023/03/08 01:33:41;;;;;;;1.85;1.50;;;;;;;0.18;100.00;98303.00;10570123;28;20504;-73
2023/03/08 01:38:43;;;;;;;2.70;1.60;;;;;;;0.19;100.00;98302.94;10568715;28;20044;-74
2023/03/08 01:43:46;;;;;;;1.70;1.33;;;;;;;0.06;100.00;98308.38;10567719;28;20063;-74
2023/03/08 01:49:05;;;;;;;3.83;1.40;;;;;;;0.16;100.00;98307.31;10551765;28;20044;-74
2023/03/08 01:54:13;;;;;;;1.95;1.40;;;;;;;0.12;100.00;98305.66;10569033;28;20404;-74
2023/03/08 01:59:15;;;;;;;3.13;1.80;;;;;;;0.09;100.00;98296.25;10566873;28;20039;-75
2023/03/08 02:04:16;;;;;;;2.10;1.90;;;;;;;-0.03;100.00;98296.47;10585488;28;20046;-74
2023/03/08 02:09:20;;;;;;;2.05;1.58;;;;;;;-0.05;100.00;98291.28;10568577;28;20085;-75
2023/03/08 02:14:23;;;;;;;3.60;1.90;;;;;;;0.00;100.00;98304.16;10587499;28;20052;-75
2023/03/08 02:19:37;;;;;;;5.72;2.33;;;;;;;-0.20;100.00;98295.88;10565575;28;20044;-75
2023/03/08 02:24:39;;;;;;;2.83;1.75;;;;;;;-0.23;100.00;98301.09;10566154;28;20051;-74
2023/03/08 02:29:41;;;;;;;2.58;2.28;;;;;;;-0.21;100.00;98304.50;10587484;28;20046;-74
2023/03/08 02:34:43;;;;;;;2.28;1.70;;;;;;;0.03;100.00;98305.81;10584554;28;20074;-74
2023/03/08 02:39:46;;;;;;;2.38;1.75;;;;;;;0.10;100.00;98305.69;10585876;28;20554;-74
2023/03/08 02:44:48;;;;;;;2.53;2.00;;;;;;;0.12;100.00;98305.66;10565742;28;20051;-74
2023/03/08 02:49:50;;;;;;;4.43;2.90;;;;;;;0.17;100.00;98304.69;10548597;28;20054;-74
2023/03/08 02:54:52;;;;;;;3.72;2.72;;;;;;;0.05;100.00;98311.84;10583455;28;20063;-75
2023/03/08 02:59:56;;;;;;;6.55;3.15;;;;;;;-0.14;100.00;98309.53;10566686;28;20131;-74
2023/03/08 03:05:06;;;;;;;3.85;2.47;;;;;;;-0.08;100.00;98304.28;10568005;28;20523;-73
2023/03/08 03:10:11;;;;;;;3.50;2.28;;;;;;;-0.08;100.00;98306.03;10547791;28;20527;-73
2023/03/08 03:15:12;;;;;;;4.32;2.72;;;;;;;0.12;100.00;98321.16;10581854;28;20507;-73
2023/03/08 03:20:15;;;;;;;2.63;2.40;;;;;;;0.10;100.00;98320.34;10576546;22;20382;-75
2023/03/08 03:25:17;;;;;;;3.50;3.17;;;;;;;-0.11;100.00;98319.81;10564421;28;20043;-75
2023/03/08 03:30:21;;;;;;;5.45;3.22;;;;;;;-0.02;100.00;98318.81;10547769;28;20047;-76
2023/03/08 03:35:23;;;;;;;4.43;3.10;;;;;;;0.07;100.00;98321.25;10563881;28;20048;-74
2023/03/08 03:40:25;;;;;;;3.70;3.40;;;;;;;0.20;100.00;98322.75;10563861;28;20048;-75
2023/03/08 03:45:32;;;;;;;4.70;4.15;;;;;;;0.41;100.00;98324.09;10563663;28;20053;-76
2023/03/08 03:50:34;;;;;;;4.82;4.47;;;;;;;0.13;100.00;98322.84;10564234;28;20413;-76
2023/03/08 03:55:42;;;;;;;5.53;4.85;;;;;;;0.02;100.00;98330.81;10564024;28;20075;-76
2023/03/08 04:00:44;;;;;;;4.68;4.28;;;;;;;-0.08;100.00;98331.84;10564145;28;20048;-74
2023/03/08 04:06:14;;;;;;;5.90;5.30;;;;;;;-0.06;100.00;98340.41;10563600;28;20066;-76
2023/03/08 04:11:20;;;;;;;6.78;6.18;;;;;;;-0.07;100.00;98336.97;10563733;28;20044;-75
2023/03/08 04:16:25;;;;;;;8.02;7.43;;;;;;;0.02;100.00;98338.56;10562898;28;20055;-76
2023/03/08 04:21:32;;;;;;;7.85;7.15;;;;;;;-0.04;100.00;98344.69;10563412;28;20524;-76
2023/03/08 04:26:35;;;;;;;8.85;8.05;;;;;;;0.02;100.00;98346.31;10563097;28;20101;-75
2023/03/08 04:31:37;;;;;;;8.85;8.13;;;;;;;0.02;100.00;98345.47;10580888;28;20047;-75
2023/03/08 04:36:42;;;;;;;9.43;8.63;;;;;;;0.01;100.00;98339.44;10562641;28;20042;-75
2023/03/08 04:41:44;;;;;;;9.60;8.80;;;;;;;0.02;100.00;98335.13;10563479;28;20109;-75
2023/03/08 04:46:55;;;;;;;9.48;8.68;;;;;;;0.02;100.00;98329.97;10570222;28;20046;-75
2023/03/08 04:52:04;;;;;;;10.82;9.88;;;;;;;-0.01;100.00;98333.44;10569944;28;20042;-75
2023/03/08 04:57:08;;;;;;;10.48;9.55;;;;;;;0.02;100.00;98337.72;10588451;28;20035;-75
2023/03/08 05:02:11;;;;;;;10.15;9.25;;;;;;;0.13;100.00;98335.78;10569462;28;20039;-75
2023/03/08 05:07:13;;;;;;;17.15;12.32;;;;;;;0.34;100.00;98342.31;10588095;28;20102;-75
2023/03/08 05:12:16;;;;;;;10.45;9.55;;;;;;;0.46;100.00;98348.13;10569260;28;20039;-75
2023/03/08 05:17:28;;;;;;;11.13;10.20;;;;;;;0.59;100.00;98340.16;10569780;28;20101;-75
2023/03/08 05:22:31;;;;;;;10.73;9.75;;;;;;;0.27;100.00;98344.16;10587630;28;20130;-75
2023/03/08 05:27:41;;;;;;;12.45;11.35;;;;;;;0.26;100.00;98345.03;10568547;28;20093;-75
2023/03/08 05:32:43;;;;;;;11.80;10.73;;;;;;;0.34;100.00;98338.00;10568910;28;20051;-75
2023/03/08 05:37:45;;;;;;;11.35;10.35;;;;;;;0.32;100.00;98347.53;10569207;28;20047;-75
2023/03/08 05:42:47;;;;;;;11.07;10.07;;;;;;;0.28;100.00;98352.78;10568563;28;20044;-76
2023/03/08 05:47:49;;;;;;;10.35;9.35;;;;;;;0.57;100.00;98368.59;10568571;28;20094;-75
2023/03/08 05:52:51;;;;;;;12.40;11.23;;;;;;;0.31;100.00;98356.16;10584995;28;20043;-75
2023/03/08 05:57:57;;;;;;;12.20;11.10;;;;;;;0.57;100.00;98358.25;10568728;28;20044;-75
2023/03/08 06:03:03;;;;;;;12.52;11.43;;;;;;;0.44;100.00;98360.22;10568198;28;20040;-75
2023/03/08 06:08:08;;;;;;;16.70;11.63;;;;;;;0.41;100.00;98372.34;10569076;28;20046;-74
2023/03/08 06:13:10;;;;;;;10.75;9.57;;;;;;;0.20;100.00;98358.91;10566828;28;20047;-75
2023/03/08 06:18:12;;;;;;;12.82;9.13;;;;;;;0.13;100.00;98356.44;10584704;28;20036;-75
2023/03/08 06:23:14;;;;;;;11.23;8.95;;;;;;;0.07;100.00;98366.91;10565964;28;20048;-75
2023/03/08 06:28:17;;;;;;;9.68;8.77;;;;;;;0.25;100.00;98379.50;10566153;28;20047;-76
2023/03/08 06:33:22;;;;;;;10.43;9.38;;;;;;;0.35;100.00;98369.84;10566121;28;20066;-75
2023/03/08 06:38:24;;;;;;;12.70;9.48;;;;;;;0.33;100.00;98367.31;10565984;28;20043;-75
2023/03/08 06:43:29;;;;;;;11.38;10.38;;;;;;;0.66;100.00;98352.91;10583754;28;20039;-76
2023/03/08 06:48:33;;;;;;;11.98;10.93;;;;;;;0.61;100.00;98335.78;10583738;28;20032;-76
2023/03/08 06:53:36;;;;;;;11.60;10.40;;;;;;;0.59;100.00;98340.16;10583301;28;20050;-77
2023/03/08 06:58:40;;;;;;;13.20;10.95;;;;;;;0.92;100.00;98349.81;10564925;28;20070;-76
2023/03/08 07:03:44;;;;;;;12.18;10.45;;;;;;;0.95;100.00;98354.09;10583250;28;20043;-75
2023/03/08 07:08:45;;;;;;;12.43;11.40;;;;;;;1.31;100.00;98361.97;10582426;28;20089;-75
2023/03/08 07:13:47;;;;;;;11.88;10.68;;;;;;;1.47;100.00;98365.94;10564212;28;20403;-75
2023/03/08 07:18:49;;;;;;;12.73;11.52;;;;;;;1.13;100.00;98369.25;10583388;28;20089;-75
2023/03/08 07:23:51;;;;;;;12.20;10.98;;;;;;;1.39;100.00;98368.69;10583138;28;20044;-75
2023/03/08 07:28:54;;;;;;;13.45;12.25;;;;;;;1.31;100.00;98369.75;10565518;28;20043;-77
2023/03/08 07:33:56;;;;;;;13.15;11.95;;;;;;;1.18;100.00;98369.16;10584093;28;20040;-74
2023/03/08 07:38:58;;;;;;;12.80;11.70;;;;;;;1.46;100.00;98365.09;10583409;28;20378;-75
2023/03/08 07:44:01;;;;;;;11.70;10.73;;;;;;;1.62;100.00;98367.34;10583352;28;20118;-75
2023/03/08 07:49:03;;;;;;;12.60;11.52;;;;;;;1.67;100.00;98362.91;10583752;28;20051;-74
2023/03/08 07:54:04;;;;;;;11.82;10.77;;;;;;;1.47;100.00;98356.44;10582704;28;20054;-76
2023/03/08 07:59:06;;;;;;;15.50;12.25;;;;;;;1.53;100.00;98365.81;10583220;28;20036;-75
2023/03/08 08:04:08;;;;;;;14.82;12.43;;;;;;;1.56;100.00;98364.91;10582206;28;20035;-76
2023/03/08 08:09:13;;;;;;;13.23;12.00;;;;;;;1.81;100.00;98365.16;10565047;28;20101;-74
2023/03/08 08:14:15;;;;;;;15.35;12.48;;;;;;;1.59;100.00;98350.13;10583064;28;20046;-74
2023/03/08 08:19:17;;;;;;;15.88;14.48;;;;;;;1.63;100.00;98348.31;10588642;28;20040;-74
2023/03/08 08:24:19;;;;;;;16.02;14.60;;;;;;;1.90;100.00;98341.63;10592794;28;20047;-74
2023/03/08 08:29:21;;;;;;;14.43;13.13;;;;;;;1.88;100.00;98328.72;10593279;28;20043;-74
2023/03/08 08:34:23;;;;;;;15.02;13.65;;;;;;;1.80;100.00;98343.59;10591686;28;20071;-73
2023/03/08 08:39:25;;;;;;;16.88;15.45;;;;;;;1.52;100.00;98339.06;10593148;28;20558;-73
2023/03/08 08:44:27;;;;;;;15.18;13.55;;;;;;;1.52;100.00;98333.03;10572856;28;20131;-73
2023/03/08 08:49:29;;;;;;;16.45;14.73;;;;;;;1.67;100.00;98321.47;10571831;28;20042;-73
2023/03/08 08:54:32;;;;;;;15.68;14.18;;;;;;;1.69;100.00;98319.69;10589832;28;20040;-73
2023/03/08 08:59:34;;;;;;;17.50;14.50;;;;;;;1.39;100.00;98309.16;10589621;28;20043;-73
2023/03/08 09:04:36;;;;;;;15.65;14.25;;;;;;;1.41;100.00;98304.78;10571415;28;20053;-73
2023/03/08 09:09:38;;;;;;;15.88;14.27;;;;;;;1.63;100.00;98304.28;10590889;28;20039;-73
2023/03/08 09:14:39;;;;;;;14.82;13.43;;;;;;;1.47;100.00;98283.09;10588103;28;20040;-73
2023/03/08 09:19:41;;;;;;;16.58;14.70;;;;;;;1.63;100.00;98279.22;10582563;22;20048;-74
2023/03/08 09:24:46;;;;;;;15.65;14.35;;;;;;;1.82;100.00;98276.22;10587544;28;20086;-74
2023/03/08 09:29:48;;;;;;;16.80;15.50;;;;;;;1.63;100.00;98270.63;10587136;28;20047;-74
2023/03/08 09:34:50;;;;;;;18.48;15.77;;;;;;;1.89;100.00;98257.88;10570202;28;20048;-76
2023/03/08 09:39:53;;;;;;;18.25;16.30;;;;;;;1.52;100.00;98239.81;10587788;28;20043;-75
2023/03/08 09:45:03;;;;;;;17.63;16.10;;;;;;;1.65;100.00;98236.03;10568920;28;20044;-75
2023/03/08 09:50:14;;;;;;;18.55;17.05;;;;;;;1.97;100.00;98222.25;10568943;28;20082;-74
2023/03/08 09:55:37;;;;;;;16.92;15.30;;;;;;;2.06;100.00;98215.97;10585970;28;20039;-74
2023/03/08 10:00:40;;;;;;;17.83;15.88;;;;;;;2.21;100.00;98209.53;10587139;28;20043;-75
2023/03/08 10:05:46;;;;;;;17.00;15.48;;;;;;;2.44;100.00;98201.97;10586616;28;20127;-75
2023/03/08 10:10:53;;;;;;;15.43;14.23;;;;;;;2.18;100.00;98194.09;10586089;28;20039;-76
2023/03/08 10:16:22;;;;;;;16.63;14.98;;;;;;;2.11;100.00;98198.56;10569187;28;20408;-75
2023/03/08 10:21:26;;;;;;;14.18;13.07;;;;;;;2.33;100.00;98188.47;10587663;28;20032;-75
2023/03/08 10:26:30;;;;;;;13.23;12.23;;;;;;;2.34;100.00;98192.75;10584916;28;20591;-75
2023/03/08 10:31:32;;;;;;;13.05;11.95;;;;;;;2.05;100.00;98185.78;10566470;28;20051;-74
2023/03/08 10:36:45;;;;;;;12.43;11.27;;;;;;;2.04;100.00;98181.50;10565598;28;20059;-74
2023/03/08 10:41:58;;;;;;;14.98;13.77;;;;;;;2.19;100.00;98175.03;10566906;28;20062;-73
2023/03/08 10:47:03;;;;;;;13.45;12.35;;;;;;;2.08;100.00;98167.56;10579340;28;20488;-71
2023/03/08 10:52:24;;;;;;;13.48;12.43;;;;;;;2.27;100.00;98158.38;10578900;28;20039;-72
2023/03/08 10:57:26;;;;;;;13.40;12.30;;;;;;;2.25;100.00;98151.53;10580680;28;20050;-71
2023/03/08 11:02:28;;;;;;;13.95;12.85;;;;;;;2.64;100.00;98133.94;10584673;28;20044;-72
2023/03/08 11:07:32;;;;;;;12.10;11.15;;;;;;;2.30;100.00;98122.88;10583774;28;20035;-72
2023/03/08 11:12:33;;;;;;;14.50;13.40;;;;;;;2.35;100.00;98110.66;10583337;28;20064;-74
2023/03/08 11:17:38;;;;;;;13.15;12.15;;;;;;;2.40;100.00;98103.56;10583728;28;20119;-73
2023/03/08 11:22:44;;;;;;;12.70;11.75;;;;;;;2.58;100.00;98082.28;10583036;28;20507;-73
2023/03/08 11:28:01;;;;;;;11.25;10.45;;;;;;;2.55;100.00;98071.97;10583640;28;20063;-73
2023/03/08 11:33:03;;;;;;;12.10;11.20;;;;;;;2.62;100.00;98057.09;10582659;28;20042;-72
2023/03/08 11:38:15;;;;;;;11.73;10.82;;;;;;;2.42;100.00;98055.94;10563578;28;20061;-72
2023/03/08 11:43:29;;;;;;;12.75;11.75;;;;;;;2.36;100.00;98035.41;10564293;28;20454;-72
2023/03/08 11:48:50;;;;;;;11.45;10.55;;;;;;;2.59;100.00;98019.13;10584202;28;20039;-71
2023/03/08 11:54:01;;;;;;;13.05;12.05;;;;;;;2.69;100.00;98007.53;10570880;28;20050;-72
2023/03/08 11:59:18;;;;;;;11.65;10.75;;;;;;;2.92;100.00;97992.97;10572329;28;20048;-71
2023/03/08 12:04:35;;;;;;;13.88;12.88;;;;;;;3.03;100.00;97990.88;10571965;28;20054;-71
2023/03/08 12:10:07;;;;;;;13.60;12.60;;;;;;;3.38;100.00;97979.25;10592467;28;20118;-72
2023/03/08 12:15:26;;;;;;;13.82;12.77;;;;;;;3.40;100.00;97969.63;10573431;28;20043;-72
2023/03/08 12:20:33;;;;;;;16.33;15.13;;;;;;;3.26;100.00;97966.69;10589546;28;20122;-72
2023/03/08 12:25:39;;;;;;;17.15;15.60;;;;;;;3.41;100.00;97963.56;10571921;28;20441;-72
2023/03/08 12:31:04;;;;;;;17.25;15.98;;;;;;;3.35;100.00;97949.94;10591043;28;20093;-72
2023/03/08 12:36:13;;;;;;;19.45;17.38;;;;;;;3.40;100.00;97953.22;10587060;28;20050;-73
2023/03/08 12:41:27;;;;;;;18.33;16.92;;;;;;;3.35;100.00;97953.38;10570013;28;20397;-72
2023/03/08 12:47:04;;;;;;;17.92;16.42;;;;;;;3.33;100.00;97947.41;10569947;28;20051;-73
2023/03/08 12:52:16;;;;;;;18.17;16.67;;;;;;;3.68;100.00;97948.72;10577672;28;20060;-72
2023/03/08 12:57:22;;;;;;;19.83;18.13;;;;;;;3.64;100.00;97946.28;10590149;28;20036;-72
2023/03/08 13:02:33;;;;;;;19.70;18.00;;;;;;;3.77;100.00;97945.78;10586826;28;20046;-72
2023/03/08 13:07:51;;;;;;;19.83;17.88;;;;;;;3.63;100.00;97950.66;10569780;28;20039;-72
2023/03/08 13:13:00;;;;;;;20.30;18.63;;;;;;;3.64;100.00;97948.88;10587560;28;20040;-73
2023/03/08 13:18:07;;;;;;;19.30;17.73;;;;;;;3.93;100.00;97948.63;10568439;28;20042;-73
2023/03/08 13:23:12;;;;;;;19.98;18.25;;;;;;;3.97;100.00;97941.56;10588374;28;20075;-72
2023/03/08 13:28:19;;;;;;;19.52;18.02;;;;;;;3.91;100.00;97932.25;10588036;28;20431;-72
2023/03/08 13:33:25;;;;;;;;;;;;;;;3.96;100.00;97929.47;10587123;28;20047;-72
2023/03/08 13:38:36;;;;;;;16.58;15.27;;;;;;;4.08;100.00;97935.97;10587415;28;20426;-72
2023/03/08 13:43:38;;;;;;;14.00;12.90;;;;;;;4.09;100.00;97919.44;10586035;28;20404;-72
2023/03/08 13:48:43;;;;;;;144.75;52.20;;;;;;;4.07;100.00;97916.03;10585824;28;20036;-72
2023/03/08 13:53:45;;;;;;;15.15;14.05;;;;;;;4.15;100.00;97894.03;10585577;28;20067;-72
2023/03/08 13:58:49;;;;;;;15.82;14.73;;;;;;;4.17;100.00;97881.84;10586663;28;20075;-72
2023/03/08 14:03:57;;;;;;;13.00;12.05;;;;;;;4.24;100.00;97874.63;10585745;28;20071;-71
2023/03/08 14:09:01;;;;;;;13.00;12.10;;;;;;;4.34;100.00;97880.28;10586075;28;20038;-73
2023/03/08 14:14:08;;;;;;;11.15;10.30;;;;;;;4.40;100.00;97867.88;10565785;28;20051;-73
2023/03/08 14:19:26;;;;;;;10.63;9.90;;;;;;;4.32;100.00;97866.50;10567463;28;20042;-71
2023/03/08 14:24:31;;;;;;;10.88;10.07;;;;;;;4.11;100.00;97857.81;10585052;28;20039;-73
2023/03/08 14:29:35;;;;;;;11.43;10.57;;;;;;;4.52;100.00;97851.78;10566118;28;20043;-73
2023/03/08 14:34:41;;;;;;;11.90;11.02;;;;;;;4.22;100.00;97845.25;10583869;28;20082;-72
2023/03/08 14:39:45;;;;;;;12.85;11.85;;;;;;;4.10;100.00;97853.53;10585033;28;20071;-72
2023/03/08 14:44:52;;;;;;;11.35;10.55;;;;;;;4.29;100.00;97850.13;10584479;28;20047;-73
2023/03/08 14:50:16;;;;;;;10.77;9.98;;;;;;;4.24;100.00;97833.84;10583759;28;20088;-72
2023/03/08 14:55:33;;;;;;;10.65;9.85;;;;;;;3.78;100.00;97821.88;10583758;28;20043;-72
2023/03/08 15:00:34;;;;;;;8.23;7.63;;;;;;;3.94;100.00;97828.16;10584538;28;20114;-72
2023/03/08 15:05:38;;;;;;;8.18;7.20;;;;;;;3.80;100.00;97810.50;10584643;28;20055;-72
2023/03/08 15:10:40;;;;;;;10.27;9.48;;;;;;;3.86;100.00;97782.59;10582901;28;20050;-72
2023/03/08 15:15:42;;;;;;;7.32;6.82;;;;;;;3.79;100.00;97771.59;10582471;28;20131;-72
2023/03/08 15:20:48;;;;;;;7.00;6.40;;;;;;;3.62;100.00;97787.00;10516452;22;20114;-73
2023/03/08 15:25:51;;;;;;;7.32;6.72;;;;;;;3.44;100.00;97791.19;10485139;28;20540;-74
2023/03/08 15:30:56;;;;;;;8.35;7.65;;;;;;;3.47;100.00;97791.06;10532945;28;20040;-74
2023/03/08 15:35:57;;;;;;;8.02;7.43;;;;;;;3.59;100.00;97775.00;10499830;28;20044;-73
2023/03/08 15:40:59;;;;;;;8.00;7.30;;;;;;;3.74;100.00;97773.53;10481030;28;20490;-74
2023/03/08 15:46:01;;;;;;;9.57;8.57;;;;;;;3.53;100.00;97755.28;10540626;28;20045;-74
2023/03/08 15:51:03;;;;;;;9.10;8.40;;;;;;;3.70;100.00;97741.63;10541098;28;20040;-74
2023/03/08 15:56:05;;;;;;;9.30;8.60;;;;;;;3.51;100.00;97744.13;10508843;28;20079;-76
2023/03/08 16:01:07;;;;;;;9.63;8.80;;;;;;;3.28;100.00;97750.25;10498465;28;20047;-75
2023/03/08 16:06:10;;;;;;;11.45;10.35;;;;;;;3.06;100.00;97732.97;10499856;28;20045;-74
2023/03/08 16:11:15;;;;;;;9.93;9.13;;;;;;;3.33;100.00;97731.88;10498353;28;20500;-74
2023/03/08 16:16:19;;;;;;;10.35;9.55;;;;;;;3.30;100.00;97734.59;10498409;28;20036;-73
2023/03/08 16:21:20;;;;;;;11.68;10.77;;;;;;;3.32;100.00;97731.94;10498278;28;20041;-73
2023/03/08 16:26:23;;;;;;;14.20;12.90;;;;;;;3.11;100.00;97729.28;10498231;28;20076;-74
2023/03/08 16:31:24;;;;;;;11.55;10.55;;;;;;;3.21;100.00;97727.16;10497804;28;20068;-74
2023/03/08 16:36:26;;;;;;;13.80;12.60;;;;;;;3.18;100.00;97725.53;10498655;28;20040;-75
2023/03/08 16:41:28;;;;;;;17.00;14.30;;;;;;;3.30;100.00;97724.22;10504433;28;20047;-74
2023/03/08 16:46:31;;;;;;;17.60;16.00;;;;;;;3.01;100.00;97725.31;10506420;28;20519;-75
2023/03/08 16:51:34;;;;;;;14.10;13.00;;;;;;;3.01;100.00;97718.41;10507578;28;20048;-74
2023/03/08 16:56:41;;;;;;;16.85;15.55;;;;;;;3.05;100.00;97721.72;10506604;28;20446;-74
2023/03/08 17:01:43;;;;;;;17.60;16.20;;;;;;;2.80;100.00;97720.97;10505105;28;20037;-75
2023/03/08 17:06:45;;;;;;;18.27;16.77;;;;;;;2.91;100.00;97714.44;10505501;28;20036;-73
2023/03/08 17:11:47;;;;;;;16.80;15.50;;;;;;;2.85;100.00;97706.06;10505098;28;20106;-74
2023/03/08 17:16:48;;;;;;;18.17;16.58;;;;;;;3.05;100.00;97703.53;10487961;28;20048;-75
2023/03/08 17:21:50;;;;;;;17.45;16.13;;;;;;;3.10;100.00;97712.03;10504493;28;20041;-74
2023/03/08 17:26:53;;;;;;;21.33;19.73;;;;;;;3.15;100.00;97712.69;10504740;28;20044;-74
2023/03/08 17:31:54;;;;;;;28.13;23.88;;;;;;;2.95;100.00;97699.63;10504064;28;20041;-74
2023/03/08 17:36:56;;;;;;;20.67;18.75;;;;;;;3.09;100.00;97688.69;10505156;28;20052;-74
2023/03/08 17:41:58;;;;;;;21.50;19.90;;;;;;;3.14;100.00;97687.59;10502624;28;20507;-74
2023/03/08 17:47:00;;;;;;;20.80;19.08;;;;;;;2.91;100.00;97690.25;10503663;28;20045;-76
2023/03/08 17:52:02;;;;;;;22.13;20.27;;;;;;;3.18;100.00;97676.19;10485841;28;20199;-74
2023/03/08 17:57:03;;;;;;;26.75;22.23;;;;;;;2.88;100.00;97672.19;10503240;28;20049;-75
2023/03/08 18:02:05;;;;;;;27.45;21.67;;;;;;;3.06;100.00;97684.50;10504011;28;20123;-74
2023/03/08 18:07:07;;;;;;;22.45;20.23;;;;;;;2.72;100.00;97683.19;10502530;28;20047;-74
2023/03/08 18:12:10;;;;;;;25.08;22.98;;;;;;;2.53;100.00;97708.97;10502612;28;20520;-74
2023/03/08 18:17:12;;;;;;;24.75;22.83;;;;;;;2.78;100.00;97705.44;10502080;28;20044;-73
2023/03/08 18:22:14;;;;;;;27.33;24.75;;;;;;;3.09;100.00;97705.13;10501838;28;20045;-74
2023/03/08 18:27:16;;;;;;;23.55;21.48;;;;;;;2.94;100.00;97706.56;10501863;28;20075;-75
2023/03/08 18:32:18;;;;;;;22.90;21.08;;;;;;;2.88;100.00;97688.66;10484394;28;20048;-75
2023/03/08 18:37:20;;;;;;;25.38;23.05;;;;;;;2.57;100.00;97676.00;10503579;28;20051;-74
2023/03/08 18:42:22;;;;;;;22.67;20.95;;;;;;;2.65;100.00;97680.88;10501411;28;20628;-73
2023/03/08 18:47:23;;;;;;;25.05;22.60;;;;;;;2.79;100.00;97689.00;10482795;28;20059;-73
2023/03/08 18:52:25;;;;;;;24.75;22.65;;;;;;;2.88;100.00;97687.78;10501241;28;20101;-75
2023/03/08 18:57:27;;;;;;;22.17;20.48;;;;;;;2.94;100.00;97692.75;10501218;28;20498;-73
2023/03/08 19:02:29;;;;;;;25.90;23.65;;;;;;;2.78;100.00;97690.72;10500275;28;20124;-74
2023/03/08 19:07:31;;;;;;;25.88;23.38;;;;;;;2.71;100.00;97685.84;10500712;28;20053;-74
2023/03/08 19:12:36;;;;;;;25.80;23.60;;;;;;;2.92;100.00;97677.25;10500567;28;20440;-74
2023/03/08 19:17:37;;;;;;;27.45;24.85;;;;;;;3.01;100.00;97663.03;10500631;28;20115;-74
2023/03/08 19:22:39;;;;;;;28.42;25.38;;;;;;;2.94;100.00;97670.22;10482924;28;20457;-73
2023/03/08 19:27:41;;;;;;;28.48;25.65;;;;;;;2.95;100.00;97679.69;10501175;28;20346;-74
2023/03/08 19:32:43;;;;;;;28.40;25.45;;;;;;;2.98;100.00;97686.53;10482675;28;20051;-74
2023/03/08 19:37:45;;;;;;;27.98;25.27;;;;;;;3.04;100.00;97689.72;10482330;28;20049;-74
2023/03/08 19:42:50;;;;;;;32.17;28.08;;;;;;;3.13;100.00;97682.47;10481481;28;20051;-73
2023/03/08 19:47:52;;;;;;;30.88;27.38;;;;;;;3.15;100.00;97678.94;10481336;28;20238;-74
2023/03/08 19:52:53;;;;;;;32.13;28.70;;;;;;;2.81;100.00;97675.97;10480908;28;20059;-75
2023/03/08 19:57:55;;;;;;;36.10;28.50;;;;;;;2.73;100.00;97678.84;10480745;28;20079;-74
2023/03/08 20:02:58;;;;;;;37.42;29.08;;;;;;;2.83;100.00;97667.19;10498540;28;20516;-74
2023/03/08 20:08:00;;;;;;;39.92;29.48;;;;;;;2.74;100.00;97675.31;10499301;28;20100;-74
2023/03/08 20:13:02;;;;;;;32.53;27.50;;;;;;;2.69;100.00;97675.50;10481921;28;20074;-74
2023/03/08 20:18:03;;;;;;;28.08;24.90;;;;;;;2.59;100.00;97678.50;10528537;28;20049;-74
2023/03/08 20:23:05;;;;;;;29.77;26.75;;;;;;;2.64;100.00;97674.84;10519010;28;20048;-74
2023/03/08 20:28:08;;;;;;;29.00;25.95;;;;;;;2.63;100.00;97677.50;10549134;28;20047;-75
2023/03/08 20:33:10;;;;;;;29.55;26.42;;;;;;;2.67;100.00;97679.06;10522806;28;20095;-74
2023/03/08 20:38:12;;;;;;;29.48;26.40;;;;;;;2.66;100.00;97682.59;10506624;28;20444;-75
2023/03/08 20:43:14;;;;;;;30.38;27.13;;;;;;;2.70;100.00;97692.78;10505647;28;20041;-74
2023/03/08 20:48:16;;;;;;;36.67;30.30;;;;;;;2.69;100.00;97693.66;10505616;28;20362;-74
2023/03/08 20:53:17;;;;;;;31.08;27.98;;;;;;;2.68;100.00;97684.19;10505290;28;20036;-75
2023/03/08 20:58:20;;;;;;;36.75;29.23;;;;;;;2.78;100.00;97692.47;10505205;28;20094;-73
2023/03/08 21:03:21;;;;;;;39.58;31.63;;;;;;;2.81;100.00;97684.59;10504741;28;20049;-75
2023/03/08 21:08:23;;;;;;;44.38;31.65;;;;;;;2.63;100.00;97688.72;10504669;28;20116;-74
2023/03/08 21:13:25;;;;;;;42.05;31.98;;;;;;;2.61;100.00;97680.16;10486776;28;20044;-73
2023/03/08 21:18:27;;;;;;;37.10;30.67;;;;;;;2.68;100.00;97680.75;10526542;22;20054;-73
2023/03/08 21:23:28;;;;;;;35.63;29.15;;;;;;;2.58;100.00;97679.44;10569167;28;20036;-74
2023/03/08 21:28:30;;;;;;;41.05;29.95;;;;;;;2.62;100.00;97666.28;10586942;28;20035;-73
2023/03/08 21:33:32;;;;;;;45.55;32.38;;;;;;;2.72;100.00;97665.03;10569210;28;20067;-74
2023/03/08 21:38:33;;;;;;;40.85;31.73;;;;;;;2.64;100.00;97659.28;10569515;28;20541;-74
2023/03/08 21:43:35;;;;;;;47.50;32.58;;;;;;;2.59;100.00;97653.41;10586931;28;20047;-74
2023/03/08 21:48:37;;;;;;;36.80;29.88;;;;;;;2.56;100.00;97656.13;10587235;28;20508;-74
2023/03/08 21:53:39;;;;;;;40.03;32.53;;;;;;;2.62;100.00;97649.88;10587878;28;20481;-74
2023/03/08 21:58:41;;;;;;;43.45;31.88;;;;;;;2.71;100.00;97644.34;10587807;28;20051;-73
2023/03/08 22:03:43;;;;;;;48.10;34.50;;;;;;;2.58;100.00;97635.34;10587222;28;20056;-72
2023/03/08 22:08:45;;;;;;;45.20;32.60;;;;;;;2.53;100.00;97636.34;10586083;28;20118;-73
2023/03/08 22:13:49;;;;;;;51.78;35.92;;;;;;;2.66;100.00;97636.72;10585948;28;20507;-73
2023/03/08 22:18:53;;;;;;;47.63;34.97;;;;;;;2.82;100.00;97628.34;10586774;28;20440;-74
2023/03/08 22:23:57;;;;;;;50.13;35.40;;;;;;;2.75;100.00;97628.59;10584986;28;20044;-73
2023/03/08 22:28:59;;;;;;;38.75;32.78;;;;;;;2.71;100.00;97626.19;10586354;28;20130;-72
2023/03/08 22:34:00;;;;;;;44.13;34.17;;;;;;;2.87;100.00;97621.22;10585161;28;20039;-73
2023/03/08 22:39:02;;;;;;;46.65;33.15;;;;;;;2.67;100.00;97611.63;10585418;28;20085;-73
2023/03/08 22:44:05;;;;;;;57.30;37.35;;;;;;;2.55;100.00;97617.28;10584547;28;20035;-73
2023/03/08 22:49:12;;;;;;;48.38;35.10;;;;;;;2.65;100.00;97616.88;10565553;28;20142;-72
2023/03/08 22:54:18;;;;;;;48.75;34.65;;;;;;;2.59;100.00;97613.69;10585519;28;20412;-73
2023/03/08 22:59:24;;;;;;;46.63;32.70;;;;;;;2.68;100.00;97608.97;10566900;28;20043;-73
2023/03/08 23:04:26;;;;;;;47.63;34.08;;;;;;;2.62;100.00;97623.94;10585655;28;20035;-72
2023/03/08 23:09:28;;;;;;;45.88;33.90;;;;;;;2.64;100.00;97616.94;10566871;28;20047;-74
2023/03/08 23:14:29;;;;;;;46.67;35.20;;;;;;;2.57;100.00;97607.69;10568153;28;20063;-73